Time;durP1;ratioP1;P1;durP2;ratioP2;P2;SDS_P1;SDS_P2;PMS_P1;PMS_P2;Temp;Humidity;BMP_temperature;BMP_pressure;BME280_temperature;BME280_humidity;BME280_pressure;Samples;Min_cycle;Max_cycle;Signal;HPM_P1;HPM_P2
2022/04/23 04:01:33;;;;;;;22.20;11.88;;;9.60;99.90;;;;;;5518431;23;20045;-82
2022/04/23 04:04:00;;;;;;;18.65;10.82;;;9.70;99.90;;;;;;4997285;28;20099;-80
2022/04/23 04:06:25;;;;;;;17.65;10.75;;;9.60;99.90;;;;;;5014197;28;20429;-82
2022/04/23 04:08:52;;;;;;;18.67;11.55;;;9.60;99.90;;;;;;5013843;28;20057;-82
2022/04/23 04:11:17;;;;;;;18.48;10.60;;;9.50;99.90;;;;;;5013820;28;20495;-82
2022/04/23 04:13:43;;;;;;;16.25;11.13;;;9.50;99.90;;;;;;5015782;28;20042;-80
2022/04/23 04:16:09;;;;;;;24.33;11.90;;;9.50;99.90;;;;;;4998307;28;20470;-80
2022/04/23 04:18:36;;;;;;;17.95;11.27;;;9.50;99.90;;;;;;5014579;28;20458;-82
2022/04/23 04:21:03;;;;;;;21.88;12.00;;;9.50;99.90;;;;;;5015660;28;20045;-82
2022/04/23 04:23:29;;;;;;;18.75;10.90;;;9.50;99.90;;;;;;5014142;28;20433;-83
2022/04/23 04:25:54;;;;;;;18.10;11.48;;;9.40;99.90;;;;;;5015008;28;20503;-82
2022/04/23 04:28:20;;;;;;;16.50;11.10;;;9.40;99.90;;;;;;5013661;28;20128;-81
2022/04/23 04:33:32;;;;;;;19.27;11.10;;;9.40;99.90;;;;;;5032217;28;20105;-80
2022/04/23 04:35:58;;;;;;;16.25;10.73;;;9.40;99.90;;;;;;5023976;28;20445;-82
2022/04/23 04:38:23;;;;;;;19.20;11.55;;;9.40;99.90;;;;;;5014979;28;20046;-83
2022/04/23 04:40:49;;;;;;;17.85;11.50;;;9.30;99.90;;;;;;5013635;28;20140;-83
2022/04/23 04:43:15;;;;;;;18.50;10.80;;;9.30;99.90;;;;;;5015226;28;20050;-81
2022/04/23 04:45:41;;;;;;;19.38;10.85;;;9.30;99.90;;;;;;5013434;28;20096;-82
2022/04/23 04:48:07;;;;;;;20.77;11.18;;;9.30;99.90;;;;;;5014694;28;20104;-81
2022/04/23 04:50:32;;;;;;;17.40;11.25;;;9.30;99.90;;;;;;5013633;28;20052;-83
2022/04/23 04:52:58;;;;;;;15.00;10.18;;;9.30;99.90;;;;;;5014093;28;20121;-83
2022/04/23 04:55:24;;;;;;;16.70;10.30;;;9.30;99.90;;;;;;5013038;28;20038;-82
2022/04/23 04:57:50;;;;;;;17.50;10.98;;;9.30;99.90;;;;;;5013349;28;20068;-81
2022/04/23 05:00:18;;;;;;;17.67;10.88;;;9.30;99.90;;;;;;5013220;28;20120;-81
2022/04/23 05:02:43;;;;;;;16.60;10.50;;;9.30;99.90;;;;;;5013068;28;20034;-78
2022/04/23 05:05:09;;;;;;;15.93;10.57;;;9.30;99.90;;;;;;5012591;28;20037;-81
2022/04/23 05:07:35;;;;;;;15.02;10.50;;;9.30;99.90;;;;;;5012922;28;20081;-82
2022/04/23 05:10:02;;;;;;;16.40;10.43;;;9.30;99.90;;;;;;5012837;28;20490;-83
2022/04/23 05:12:28;;;;;;;14.13;9.90;;;9.40;99.90;;;;;;4996519;28;20041;-84
2022/04/23 05:14:53;;;;;;;17.48;10.20;;;9.40;99.90;;;;;;4996566;28;20042;-81
2022/04/23 05:17:19;;;;;;;16.65;10.73;;;9.40;99.90;;;;;;5014531;28;20034;-84
2022/04/23 05:19:45;;;;;;;15.13;10.60;;;9.40;99.90;;;;;;5013036;28;20050;-82
2022/04/23 05:22:10;;;;;;;18.80;10.50;;;9.40;99.90;;;;;;5014317;28;20124;-83
2022/04/23 05:24:36;;;;;;;13.05;9.63;;;9.40;99.90;;;;;;5012215;28;20153;-83
2022/04/23 05:27:01;;;;;;;15.45;9.50;;;9.40;99.90;;;;;;5012410;28;20038;-82
2022/04/23 05:29:27;;;;;;;14.27;9.40;;;9.50;99.90;;;;;;5015068;28;20093;-82
2022/04/23 05:31:53;;;;;;;15.63;9.77;;;9.40;99.90;;;;;;5012756;28;20042;-83
2022/04/23 05:34:18;;;;;;;17.42;10.38;;;9.50;99.90;;;;;;5012457;28;20049;-82
2022/04/23 05:36:44;;;;;;;16.13;10.20;;;9.50;99.90;;;;;;5012865;28;20052;-81
2022/04/23 05:39:10;;;;;;;15.82;9.82;;;9.50;99.90;;;;;;5012326;28;20049;-81
2022/04/23 05:41:36;;;;;;;16.60;9.52;;;9.50;99.90;;;;;;5012979;28;20042;-81
2022/04/23 05:44:02;;;;;;;16.70;9.82;;;9.60;99.90;;;;;;5014603;28;20069;-81
2022/04/23 05:46:28;;;;;;;15.30;9.02;;;9.60;99.90;;;;;;5012820;28;20069;-80
2022/04/23 05:48:55;;;;;;;12.35;8.77;;;9.70;99.90;;;;;;5012483;28;20103;-80
2022/04/23 05:51:20;;;;;;;13.10;8.98;;;9.70;99.90;;;;;;5012079;28;20050;-80
2022/04/23 05:53:46;;;;;;;16.70;9.98;;;9.70;99.90;;;;;;5013853;28;20038;-83
2022/04/23 05:56:12;;;;;;;15.20;9.20;;;9.80;99.90;;;;;;5014045;28;20044;-80
2022/04/23 05:58:37;;;;;;;13.43;8.85;;;9.80;99.90;;;;;;5012639;28;20042;-81
2022/04/23 06:01:03;;;;;;;14.75;9.43;;;9.80;99.90;;;;;;5012446;28;20371;-81
2022/04/23 06:03:29;;;;;;;15.88;9.98;;;9.90;99.90;;;;;;5012329;28;20045;-83
2022/04/23 06:05:55;;;;;;;14.07;9.02;;;9.90;99.90;;;;;;5015324;28;20046;-83
2022/04/23 06:08:20;;;;;;;14.18;9.43;;;9.90;99.90;;;;;;5015852;28;20044;-82
2022/04/23 06:10:47;;;;;;;15.30;9.00;;;10.00;99.90;;;;;;5015746;28;20050;-80
2022/04/23 06:13:13;;;;;;;17.77;9.65;;;10.00;99.90;;;;;;5017150;28;20084;-82
2022/04/23 06:15:38;;;;;;;14.38;9.18;;;10.10;99.90;;;;;;5017281;28;20039;-82
2022/04/23 06:18:04;;;;;;;12.60;8.98;;;10.10;99.90;;;;;;5015982;28;20042;-82
2022/04/23 06:20:30;;;;;;;14.95;9.18;;;10.20;99.90;;;;;;5015712;28;20049;-82
2022/04/23 06:22:55;;;;;;;14.10;9.75;;;10.20;99.90;;;;;;5015937;28;20042;-82
2022/04/23 06:25:21;;;;;;;14.00;9.20;;;10.30;99.90;;;;;;5015779;28;20498;-83
2022/04/23 06:27:47;;;;;;;15.63;10.27;;;10.30;99.90;;;;;;5015890;28;20050;-84
2022/04/23 06:30:13;;;;;;;14.32;9.25;;;10.30;99.90;;;;;;5015490;28;20077;-82
2022/04/23 06:32:39;;;;;;;12.48;9.63;;;10.40;99.90;;;;;;5015661;28;20339;-82
2022/04/23 06:35:06;;;;;;;15.35;9.30;;;10.50;99.90;;;;;;5016966;28;20482;-83
2022/04/23 06:37:36;;;;;;;15.52;9.52;;;10.50;99.90;;;;;;5015594;28;20049;-81
2022/04/23 06:40:02;;;;;;;14.38;9.45;;;10.60;99.90;;;;;;5016810;28;20037;-81
2022/04/23 06:42:27;;;;;;;15.57;9.75;;;10.60;99.90;;;;;;5015076;28;20371;-82
2022/04/23 06:44:53;;;;;;;12.85;9.32;;;10.70;99.90;;;;;;5015183;28;20057;-83
2022/04/23 06:47:18;;;;;;;14.60;9.63;;;10.70;99.90;;;;;;5015785;28;20409;-84
2022/04/23 06:49:44;;;;;;;14.40;9.45;;;10.80;99.90;;;;;;5015467;28;20475;-81
2022/04/23 06:52:10;;;;;;;15.73;9.90;;;10.80;99.90;;;;;;5015281;28;20046;-84
2022/04/23 06:54:35;;;;;;;17.67;9.70;;;10.90;99.90;;;;;;5016308;28;20077;-82
2022/04/23 06:57:01;;;;;;;13.25;9.55;;;10.90;99.90;;;;;;4999066;28;20041;-81
2022/04/23 06:59:26;;;;;;;15.85;9.95;;;10.90;99.90;;;;;;5016225;28;20144;-81
2022/04/23 07:01:52;;;;;;;16.48;9.93;;;11.00;99.90;;;;;;5014893;28;20557;-81
2022/04/23 07:04:18;;;;;;;14.02;9.55;;;11.00;99.90;;;;;;5016308;28;20128;-80
2022/04/23 07:06:43;;;;;;;14.77;10.27;;;11.00;99.90;;;;;;5014781;28;20155;-82
2022/04/23 07:09:09;;;;;;;13.75;8.93;;;11.10;99.90;;;;;;4998830;28;20477;-81
2022/04/23 07:11:34;;;;;;;13.50;9.63;;;11.20;99.90;;;;;;5016216;28;20041;-83
2022/04/23 07:14:00;;;;;;;14.63;10.43;;;11.20;99.90;;;;;;5016919;28;20042;-81
2022/04/23 07:16:26;;;;;;;15.40;9.60;;;11.30;99.90;;;;;;5014222;28;20091;-82
2022/04/23 07:18:54;;;;;;;17.08;10.48;;;11.40;99.90;;;;;;5014863;28;20038;-81
2022/04/23 07:21:21;;;;;;;13.93;9.63;;;11.40;99.90;;;;;;5014691;28;20042;-81
2022/04/23 07:26:32;;;;;;;15.77;10.25;;;11.50;99.90;;;;;;5016081;28;20049;-82
2022/04/23 07:28:58;;;;;;;16.75;10.52;;;11.60;99.90;;;;;;5014264;28;20045;-82
2022/04/23 07:31:24;;;;;;;13.20;9.60;;;11.70;99.90;;;;;;5015872;28;20066;-82
2022/04/23 07:39:19;;;;;;;15.30;9.48;;;12.00;99.90;;;;;;5014681;28;20046;-80
2022/04/23 07:41:44;;;;;;;14.30;9.35;;;12.10;99.90;;;;;;5015644;28;20505;-81
2022/04/23 07:44:10;;;;;;;17.17;9.88;;;12.10;99.90;;;;;;5014135;28;20100;-81
2022/04/23 07:46:35;;;;;;;15.75;9.40;;;12.20;99.90;;;;;;5014170;28;20038;-83
2022/04/23 07:49:01;;;;;;;15.93;9.65;;;12.30;99.90;;;;;;5015519;28;20105;-82
2022/04/23 07:51:27;;;;;;;14.95;9.48;;;12.40;99.90;;;;;;5014468;28;20038;-82
2022/04/23 07:53:56;;;;;;;13.77;9.30;;;12.50;99.90;;;;;;5014153;28;20034;-81
2022/04/23 07:56:22;;;;;;;14.85;9.30;;;12.60;99.90;;;;;;5014063;28;20124;-82
2022/04/23 07:58:48;;;;;;;15.15;9.35;;;12.70;99.90;;;;;;5015364;28;20033;-81
2022/04/23 08:01:13;;;;;;;18.42;9.45;;;12.80;99.90;;;;;;5013760;28;20087;-82
2022/04/23 08:03:39;;;;;;;14.15;9.38;;;12.90;99.90;;;;;;5013866;28;20045;-79
2022/04/23 08:06:05;;;;;;;15.20;9.27;;;13.00;99.90;;;;;;5013876;28;20050;-81
2022/04/23 08:08:34;;;;;;;12.60;8.75;;;13.10;99.90;;;;;;5014226;28;20124;-82
2022/04/23 08:10:59;;;;;;;14.73;9.55;;;13.10;99.90;;;;;;5015052;28;20117;-82
2022/04/23 08:13:25;;;;;;;18.85;8.45;;;13.30;99.90;;;;;;5015233;28;20042;-83
2022/04/23 08:15:51;;;;;;;17.55;9.57;;;13.30;99.90;;;;;;5014986;28;20084;-82
2022/04/23 08:18:16;;;;;;;16.13;8.70;;;13.40;99.90;;;;;;5013590;28;20034;-82
2022/04/23 08:20:43;;;;;;;13.45;8.63;;;13.50;99.90;;;;;;5013414;28;20101;-80
2022/04/23 08:23:09;;;;;;;14.93;9.90;;;13.50;99.90;;;;;;4997311;28;20049;-82
2022/04/23 08:25:35;;;;;;;14.70;8.60;;;13.60;99.90;;;;;;5013493;28;20045;-83
2022/04/23 08:30:46;;;;;;;11.93;8.10;;;14.00;99.90;;;;;;5015176;28;20050;-82
2022/04/23 08:33:11;;;;;;;12.68;8.65;;;14.70;99.90;;;;;;5013581;28;20044;-79
2022/04/23 08:35:38;;;;;;;11.68;8.00;;;15.30;99.90;;;;;;5014199;28;20500;-81
2022/04/23 08:38:07;;;;;;;10.90;7.85;;;15.60;99.90;;;;;;5014928;28;20056;-80
2022/04/23 08:40:41;;;;;;;14.68;8.27;;;15.70;99.90;;;;;;5014624;28;20041;-82
2022/04/23 08:43:07;;;;;;;12.63;7.38;;;15.70;99.90;;;;;;5012997;28;20121;-81
2022/04/23 08:45:36;;;;;;;13.95;7.63;;;15.70;99.90;;;;;;4996598;28;20073;-82
2022/04/23 08:48:15;;;;;;;10.40;8.10;;;15.80;99.90;;;;;;5013174;28;20049;-82
2022/04/23 08:50:43;;;;;;;14.82;7.60;;;15.70;99.90;;;;;;5013112;28;20060;-80
2022/04/23 08:53:17;;;;;;;13.52;7.53;;;15.70;99.90;;;;;;5012757;28;20470;-81
2022/04/23 08:55:46;;;;;;;14.57;8.05;;;15.60;99.90;;;;;;5014531;28;20046;-80
2022/04/23 08:58:13;;;;;;;14.50;7.72;;;15.80;99.90;;;;;;5012610;28;20045;-83
2022/04/23 09:00:39;;;;;;;14.32;7.43;;;15.90;99.90;;;;;;5012116;28;20042;-82
2022/04/23 09:03:05;;;;;;;10.32;7.78;;;16.20;99.90;;;;;;5014484;28;20080;-81
2022/04/23 09:05:31;;;;;;;11.80;7.72;;;16.40;99.90;;;;;;5013118;28;20414;-82
2022/04/23 09:07:57;;;;;;;11.43;8.20;;;16.50;99.90;;;;;;5013507;28;20042;-80
2022/04/23 09:10:51;;;;;;;11.68;7.55;;;16.60;99.90;;;;;;4997682;28;20049;-82
2022/04/23 09:13:32;;;;;;;13.25;7.90;;;16.80;99.90;;;;;;5011712;28;20076;-82
2022/04/23 09:25:02;;;;;;;10.93;7.72;;;17.00;99.70;;;;;;4938089;29;20550;-81
2022/04/23 09:27:30;;;;;;;11.25;7.72;;;17.00;99.90;;;;;;4938457;29;20105;-83
2022/04/23 09:30:13;;;;;;;9.82;7.78;;;17.10;99.90;;;;;;4957255;28;20053;-83
2022/04/23 09:32:58;;;;;;;9.88;7.25;;;17.10;99.90;;;;;;5013605;28;20041;-82
2022/04/23 09:35:24;;;;;;;13.05;7.97;;;17.10;99.70;;;;;;5025790;28;20042;-81
2022/04/23 09:40:35;;;;;;;10.40;8.10;;;17.10;99.80;;;;;;5024994;28;20052;-82
2022/04/23 09:43:02;;;;;;;10.77;7.65;;;17.20;99.50;;;;;;5018334;28;20042;-82
2022/04/23 09:45:29;;;;;;;9.93;7.65;;;17.50;98.80;;;;;;5017985;28;20046;-81
2022/04/23 09:48:18;;;;;;;11.48;8.13;;;17.70;98.10;;;;;;5000958;28;20081;-81
2022/04/23 09:50:46;;;;;;;9.90;7.53;;;17.90;96.50;;;;;;4992382;28;20092;-82
2022/04/23 09:53:19;;;;;;;12.40;8.23;;;18.00;97.50;;;;;;5016675;28;20042;-81
2022/04/23 09:55:46;;;;;;;11.48;7.32;;;18.20;96.60;;;;;;5016281;28;20046;-81
2022/04/23 09:58:13;;;;;;;14.05;8.10;;;18.40;96.30;;;;;;5016688;28;20045;-82
2022/04/23 10:00:47;;;;;;;12.60;8.07;;;18.50;95.80;;;;;;5016479;28;20053;-82
2022/04/23 10:03:14;;;;;;;11.55;7.75;;;18.70;96.00;;;;;;4999848;28;20046;-82
2022/04/23 10:05:41;;;;;;;9.45;7.60;;;18.70;95.30;;;;;;5016038;28;20049;-81
2022/04/23 10:08:21;;;;;;;10.27;7.35;;;18.70;95.10;;;;;;5016097;28;20060;-80
2022/04/23 10:10:53;;;;;;;10.30;7.00;;;18.70;94.30;;;;;;5018113;28;20041;-81
2022/04/23 10:13:22;;;;;;;15.30;7.93;;;18.80;94.50;;;;;;5016172;28;20458;-82
2022/04/23 10:15:48;;;;;;;11.00;7.55;;;18.70;93.30;;;;;;5016671;28;20434;-82
2022/04/23 10:18:15;;;;;;;13.07;8.18;;;18.70;93.30;;;;;;5017712;28;20034;-83
2022/04/23 10:20:52;;;;;;;11.43;8.10;;;18.80;93.30;;;;;;5017424;28;20041;-83
2022/04/23 10:23:46;;;;;;;13.10;7.90;;;18.90;93.20;;;;;;5015971;28;20046;-81
2022/04/23 10:26:37;;;;;;;10.23;7.97;;;18.90;92.40;;;;;;5016084;28;20034;-80
2022/04/23 10:29:13;;;;;;;13.75;8.32;;;18.90;91.60;;;;;;5015662;28;20129;-82
2022/04/23 10:31:41;;;;;;;14.23;8.38;;;18.90;91.90;;;;;;5015853;28;20046;-83
2022/04/23 10:34:31;;;;;;;11.82;7.97;;;18.70;91.30;;;;;;5015736;28;20131;-82
2022/04/23 10:37:16;;;;;;;12.45;8.40;;;18.70;91.40;;;;;;5016597;28;20470;-81
2022/04/23 10:39:50;;;;;;;12.15;8.35;;;18.80;91.30;;;;;;5016899;28;20117;-82
2022/04/23 10:42:17;;;;;;;11.73;7.88;;;18.90;91.10;;;;;;5015194;28;20399;-82
2022/04/23 10:44:44;;;;;;;11.10;8.52;;;19.00;91.30;;;;;;5015266;28;20478;-82
2022/04/23 10:47:28;;;;;;;10.70;8.15;;;19.10;91.00;;;;;;5015203;28;20074;-80
2022/04/23 10:50:13;;;;;;;10.35;7.70;;;19.20;91.00;;;;;;5014658;28;20081;-84
2022/04/23 10:52:39;;;;;;;;;;;19.40;90.90;;;;;;5015138;28;20041;-81
2022/04/23 10:55:08;;;;;;;13.07;8.63;;;19.50;90.50;;;;;;5014787;28;20328;-82
2022/04/23 10:57:39;;;;;;;15.23;8.75;;;19.40;90.20;;;;;;5015295;28;20130;-82
2022/04/23 11:00:10;;;;;;;14.15;8.60;;;19.20;89.60;;;;;;5014770;28;20203;-82
2022/04/23 11:02:37;;;;;;;14.30;9.13;;;19.30;88.60;;;;;;5015260;28;20121;-80
2022/04/23 11:13:49;;;;;;;9.25;7.85;;;20.10;89.30;;;;;;5014778;28;20046;-81
2022/04/23 11:16:16;;;;;;;9.88;7.80;;;20.30;88.00;;;;;;5014571;28;20500;-81
2022/04/23 11:18:52;;;;;;;11.43;7.65;;;20.30;88.00;;;;;;5014298;28;20046;-81
2022/04/23 11:21:23;;;;;;;11.13;8.60;;;20.30;86.00;;;;;;5014527;28;20038;-82
2022/04/23 11:23:49;;;;;;;12.43;8.05;;;20.50;86.70;;;;;;4998175;28;20493;-82
2022/04/23 11:26:17;;;;;;;10.50;7.50;;;20.60;86.60;;;;;;5014256;28;20089;-82
2022/04/23 11:28:44;;;;;;;15.93;8.10;;;20.50;83.90;;;;;;5014684;28;20088;-82
2022/04/23 11:31:15;;;;;;;8.27;6.72;;;20.60;82.50;;;;;;5014252;28;20057;-83
2022/04/23 11:33:52;;;;;;;12.88;7.15;;;20.80;81.60;;;;;;5014863;28;20363;-83
2022/04/23 11:36:19;;;;;;;11.52;8.55;;;20.80;78.90;;;;;;5013953;28;20034;-81
2022/04/23 11:38:44;;;;;;;11.95;8.43;;;20.70;78.60;;;;;;5014151;28;20113;-82
2022/04/23 11:41:25;;;;;;;10.60;7.45;;;20.60;79.00;;;;;;5015653;28;20463;-82
2022/04/23 11:43:51;;;;;;;12.48;6.90;;;20.80;79.00;;;;;;5014125;28;20081;-82
2022/04/23 11:46:17;;;;;;;13.65;7.88;;;20.90;77.40;;;;;;5014201;28;20469;-82
2022/04/23 11:48:48;;;;;;;13.40;7.80;;;20.90;77.50;;;;;;5013692;28;20104;-81
2022/04/23 11:51:21;;;;;;;13.43;7.18;;;20.70;76.80;;;;;;5013728;28;20485;-83
2022/04/23 11:54:00;;;;;;;11.20;7.13;;;20.70;74.70;;;;;;5013837;28;20049;-82
2022/04/23 11:56:33;;;;;;;8.68;6.72;;;20.80;75.20;;;;;;5013781;28;20121;-81
2022/04/23 11:59:03;;;;;;;10.98;7.15;;;21.00;74.90;;;;;;5013937;28;20117;-82
2022/04/23 12:01:29;;;;;;;9.77;7.50;;;21.20;74.70;;;;;;5013282;28;20367;-81
2022/04/23 12:03:56;;;;;;;10.48;7.07;;;21.20;73.20;;;;;;5013355;28;20079;-84
2022/04/23 12:06:22;;;;;;;9.43;6.97;;;21.10;74.10;;;;;;4997968;28;20127;-83
2022/04/23 12:08:49;;;;;;;12.05;6.85;;;21.20;72.60;;;;;;5014382;28;20375;-83
2022/04/23 12:11:29;;;;;;;10.77;6.70;;;21.50;72.50;;;;;;5013714;28;20046;-82
2022/04/23 12:13:55;;;;;;;9.40;6.78;;;21.60;71.40;;;;;;5014670;28;20070;-82
2022/04/23 12:16:35;;;;;;;9.23;7.00;;;21.70;71.70;;;;;;5014080;28;20522;-82
2022/04/23 12:19:09;;;;;;;11.52;6.35;;;21.70;70.30;;;;;;4997891;28;20046;-82
2022/04/23 12:21:36;;;;;;;8.85;6.75;;;21.90;72.30;;;;;;5013838;28;20136;-82
2022/04/23 12:24:07;;;;;;;10.40;6.05;;;22.10;70.60;;;;;;5013402;28;20046;-83
2022/04/23 12:26:38;;;;;;;9.70;6.78;;;22.10;68.20;;;;;;5013583;28;20053;-81
2022/04/23 12:43:20;;;;;;;7.35;4.82;;;21.40;62.60;;;;;;5012672;28;20497;-79
2022/04/23 12:45:47;;;;;;;8.27;5.03;;;21.60;61.10;;;;;;4996342;28;20081;-81
2022/04/23 12:48:14;;;;;;;9.48;6.53;;;21.70;60.70;;;;;;5014387;28;20034;-82
2022/04/23 12:50:40;;;;;;;10.07;5.50;;;21.60;60.20;;;;;;5013136;28;20398;-80
2022/04/23 12:53:06;;;;;;;10.68;5.30;;;21.50;60.70;;;;;;4996277;28;20129;-81
2022/04/23 12:55:37;;;;;;;8.75;5.57;;;21.70;60.10;;;;;;5012415;28;20220;-82
2022/04/23 12:58:03;;;;;;;8.45;5.63;;;22.00;59.00;;;;;;5012561;28;20374;-81
2022/04/23 13:00:34;;;;;;;10.95;5.82;;;22.20;58.90;;;;;;5012710;28;20057;-82
2022/04/23 13:03:14;;;;;;;9.52;6.35;;;22.30;59.60;;;;;;5012728;28;20045;-82
2022/04/23 13:05:40;;;;;;;10.15;6.20;;;22.30;59.60;;;;;;5012844;28;20046;-81
2022/04/23 13:10:50;;;;;;;8.07;5.82;;;22.00;59.00;;;;;;5012682;28;20052;-81
2022/04/23 13:13:15;;;;;;;10.32;5.85;;;22.00;59.00;;;;;;5012323;28;20394;-83
2022/04/23 13:15:41;;;;;;;11.68;5.30;;;22.20;59.40;;;;;;5013844;28;20037;-82
2022/04/23 13:18:07;;;;;;;7.53;4.97;;;22.40;59.40;;;;;;5012565;28;20136;-81
2022/04/23 13:20:33;;;;;;;7.75;5.70;;;22.60;57.80;;;;;;5012267;28;20489;-82
2022/04/23 13:22:59;;;;;;;9.75;5.18;;;22.60;57.70;;;;;;5012285;28;20041;-83
2022/04/23 13:25:27;;;;;;;8.68;5.03;;;22.90;58.00;;;;;;5012198;28;20045;-83
2022/04/23 13:27:53;;;;;;;9.95;6.22;;;22.70;57.90;;;;;;4995805;28;20050;-81
2022/04/23 13:30:18;;;;;;;9.77;5.20;;;22.70;57.30;;;;;;5012178;28;20138;-81
2022/04/23 13:32:46;;;;;;;15.75;5.20;;;22.80;55.60;;;;;;5012210;28;20508;-80
2022/04/23 13:35:13;;;;;;;8.40;5.00;;;22.70;54.60;;;;;;5011919;28;20490;-83
2022/04/23 13:37:40;;;;;;;7.63;5.47;;;22.70;53.70;;;;;;4996124;28;20081;-83
2022/04/23 13:40:07;;;;;;;7.32;3.92;;;22.60;53.50;;;;;;5013661;28;20045;-82
2022/04/23 13:42:34;;;;;;;7.57;4.70;;;22.80;53.00;;;;;;5012122;28;20113;-83
2022/04/23 13:45:00;;;;;;;10.20;4.95;;;22.90;52.10;;;;;;5012465;28;20096;-81
2022/04/23 13:47:26;;;;;;;6.70;4.13;;;22.90;51.30;;;;;;5012806;28;20087;-82
2022/04/23 13:49:52;;;;;;;9.05;4.28;;;22.90;52.00;;;;;;5012472;28;20042;-82
2022/04/23 13:52:18;;;;;;;9.88;4.40;;;22.90;50.90;;;;;;5014002;28;20041;-82
2022/04/23 13:54:44;;;;;;;5.03;3.63;;;23.00;50.80;;;;;;5012511;28;20505;-80
2022/04/23 13:57:09;;;;;;;7.20;3.92;;;23.20;50.80;;;;;;5012881;28;20030;-83
2022/04/23 13:59:36;;;;;;;7.75;4.30;;;23.10;51.40;;;;;;5012605;28;20478;-83
2022/04/23 14:10:15;;;;;;;8.40;4.43;;;23.60;49.90;;;;;;5012117;28;20058;-81
2022/04/23 14:12:43;;;;;;;8.30;3.85;;;23.60;49.20;;;;;;5012182;28;20050;-81
2022/04/23 14:15:10;;;;;;;6.40;4.00;;;23.50;49.00;;;;;;5011863;28;20470;-82
2022/04/23 14:17:36;;;;;;;7.97;4.40;;;23.60;49.20;;;;;;5012101;28;20041;-83
2022/04/23 14:20:02;;;;;;;6.82;3.97;;;23.60;49.70;;;;;;5013488;28;20401;-82
2022/04/23 14:22:28;;;;;;;8.40;4.03;;;23.70;49.00;;;;;;5013353;28;20482;-84
2022/04/23 14:24:54;;;;;;;5.18;3.85;;;23.70;48.00;;;;;;5013670;28;20113;-82
2022/04/23 14:27:20;;;;;;;6.43;4.00;;;23.70;47.60;;;;;;5017037;28;20049;-82
2022/04/23 14:29:45;;;;;;;5.05;3.65;;;23.70;47.70;;;;;;5015832;28;20405;-83
2022/04/23 14:32:11;;;;;;;5.00;3.83;;;23.50;47.80;;;;;;5015506;28;20057;-83
2022/04/23 14:34:37;;;;;;;5.18;3.67;;;23.70;48.40;;;;;;4999035;28;20132;-82
2022/04/23 14:37:03;;;;;;;6.80;3.92;;;23.50;47.20;;;;;;5015893;28;20441;-80
2022/04/23 14:39:29;;;;;;;11.60;4.38;;;23.60;46.70;;;;;;5015306;28;20121;-82
2022/04/23 14:41:55;;;;;;;9.48;4.30;;;23.20;46.30;;;;;;5015240;28;20474;-82
2022/04/23 14:44:21;;;;;;;8.52;4.28;;;23.10;47.50;;;;;;5016830;28;20042;-84
2022/04/23 14:46:48;;;;;;;7.47;4.93;;;23.00;47.40;;;;;;5015367;28;20374;-81
2022/04/23 14:49:14;;;;;;;7.10;4.25;;;23.20;48.10;;;;;;5015409;28;20048;-81
2022/04/23 14:54:24;;;;;;;11.57;4.10;;;23.40;46.90;;;;;;5015109;28;20041;-82
2022/04/23 14:56:50;;;;;;;5.63;3.83;;;23.40;46.90;;;;;;5016960;28;20088;-82
2022/04/23 14:59:16;;;;;;;5.57;3.88;;;23.50;48.10;;;;;;5014911;28;20108;-83
2022/04/23 15:01:42;;;;;;;6.05;3.90;;;23.60;48.20;;;;;;4998959;28;20048;-82
2022/04/23 15:04:10;;;;;;;8.85;4.50;;;23.60;46.60;;;;;;5014849;28;20053;-80
2022/04/23 15:06:40;;;;;;;7.55;4.50;;;23.30;46.30;;;;;;5015045;28;20046;-81
2022/04/23 15:09:06;;;;;;;7.43;4.65;;;22.90;45.90;;;;;;4998656;28;20126;-81
2022/04/23 15:11:32;;;;;;;8.48;4.72;;;22.60;46.50;;;;;;5014782;28;20042;-81
2022/04/23 15:13:58;;;;;;;6.88;4.30;;;22.70;47.40;;;;;;5015209;28;20402;-81
2022/04/23 15:16:24;;;;;;;6.47;3.95;;;22.90;47.20;;;;;;5016273;28;20034;-82
2022/04/23 15:18:50;;;;;;;6.22;4.00;;;22.90;46.70;;;;;;5014938;28;20045;-82
2022/04/23 15:21:15;;;;;;;6.47;4.45;;;23.00;46.50;;;;;;5014768;28;20068;-82
2022/04/23 15:23:41;;;;;;;8.15;3.85;;;23.10;46.60;;;;;;5016209;28;20030;-81
2022/04/23 15:26:07;;;;;;;6.90;3.53;;;23.10;47.00;;;;;;4998977;28;20042;-83
2022/04/23 15:28:33;;;;;;;4.78;3.30;;;23.10;46.00;;;;;;5014588;28;20048;-82
2022/04/23 15:31:04;;;;;;;6.20;3.35;;;22.90;45.40;;;;;;5015870;28;20037;-82
2022/04/23 15:33:30;;;;;;;6.07;3.40;;;22.70;45.10;;;;;;4998184;28;20037;-81
2022/04/23 15:35:56;;;;;;;6.43;3.28;;;22.70;45.10;;;;;;5014011;28;20045;-81
2022/04/23 15:38:23;;;;;;;6.88;3.50;;;22.60;45.90;;;;;;5014077;28;20052;-82
2022/04/23 15:40:49;;;;;;;7.75;2.95;;;22.70;46.40;;;;;;5014266;28;20092;-81
2022/04/23 15:43:14;;;;;;;6.35;3.10;;;22.70;46.10;;;;;;5014288;28;20041;-82
2022/04/23 15:45:40;;;;;;;5.20;3.03;;;22.60;45.70;;;;;;4998111;28;20042;-82
2022/04/23 15:48:08;;;;;;;4.35;2.92;;;22.60;45.30;;;;;;5014496;28;20049;-81
2022/04/23 15:50:34;;;;;;;5.45;2.90;;;22.60;44.80;;;;;;5014293;28;20128;-83
2022/04/23 15:53:00;;;;;;;4.93;3.10;;;22.50;44.10;;;;;;5014604;28;20078;-80
2022/04/23 15:55:26;;;;;;;7.93;2.90;;;22.20;43.70;;;;;;5015708;28;20490;-81
2022/04/23 15:57:52;;;;;;;4.15;2.90;;;22.10;44.10;;;;;;5014101;28;20402;-80
2022/04/23 16:00:19;;;;;;;6.68;2.95;;;22.10;44.70;;;;;;4997329;28;20116;-82
2022/04/23 16:02:44;;;;;;;5.85;2.88;;;22.10;44.70;;;;;;5014214;28;20045;-82
2022/04/23 16:05:10;;;;;;;3.97;2.83;;;22.20;45.00;;;;;;5013887;28;20045;-82
2022/04/23 16:07:36;;;;;;;4.53;2.88;;;22.10;45.20;;;;;;5013856;28;20064;-80
2022/04/23 16:10:02;;;;;;;4.95;3.00;;;22.20;45.60;;;;;;5013531;28;20052;-82
2022/04/23 16:12:28;;;;;;;4.15;3.30;;;22.10;45.20;;;;;;5013725;28;20046;-82
2022/04/23 16:14:53;;;;;;;4.50;3.40;;;22.10;44.90;;;;;;5013844;28;20080;-80
2022/04/23 16:17:19;;;;;;;8.25;3.72;;;21.80;44.80;;;;;;5015089;28;20034;-79
2022/04/23 16:19:44;;;;;;;6.20;3.00;;;21.80;45.60;;;;;;4998270;28;20441;-80
2022/04/23 16:22:10;;;;;;;5.75;3.33;;;21.70;45.80;;;;;;5029571;28;20038;-78
2022/04/23 16:24:36;;;;;;;5.80;3.55;;;21.70;46.10;;;;;;5030987;28;20080;-79
2022/04/23 16:27:03;;;;;;;6.00;3.30;;;21.70;46.80;;;;;;5024030;28;20123;-80
2022/04/23 16:29:29;;;;;;;6.00;3.15;;;21.70;46.00;;;;;;5015350;28;20045;-80
2022/04/23 16:31:54;;;;;;;4.47;2.95;;;21.70;45.60;;;;;;5014098;28;20163;-80
2022/04/23 16:34:20;;;;;;;5.28;3.00;;;21.50;45.40;;;;;;5013621;28;20172;-79
2022/04/23 16:47:42;;;;;;;4.28;3.40;;;21.20;47.40;;;;;;5013107;28;20402;-82
2022/04/23 16:50:08;;;;;;;6.18;3.47;;;20.80;46.50;;;;;;5014372;28;20041;-81
2022/04/23 16:52:34;;;;;;;6.57;3.10;;;20.80;46.80;;;;;;5013172;28;20052;-82
2022/04/23 16:55:00;;;;;;;5.00;3.45;;;20.80;47.10;;;;;;5013152;28;20064;-83
2022/04/23 16:57:26;;;;;;;5.72;3.60;;;20.70;46.60;;;;;;5013038;28;20041;-81
2022/04/23 16:59:51;;;;;;;6.00;3.08;;;20.50;47.10;;;;;;5013208;28;20065;-81
2022/04/23 17:02:17;;;;;;;6.40;3.20;;;20.40;47.50;;;;;;5012474;28;20042;-81
2022/04/23 17:04:42;;;;;;;6.32;3.33;;;20.40;48.10;;;;;;5013044;28;20401;-84
2022/04/23 17:07:08;;;;;;;5.78;3.17;;;20.50;48.30;;;;;;5014075;28;20052;-79
2022/04/23 17:09:34;;;;;;;7.20;3.08;;;20.60;47.90;;;;;;5012877;28;20050;-82
2022/04/23 17:11:59;;;;;;;6.40;3.30;;;20.70;47.40;;;;;;5012910;28;20049;-81
2022/04/23 17:14:27;;;;;;;5.35;3.00;;;20.70;47.40;;;;;;4996157;28;20084;-81
2022/04/23 17:16:54;;;;;;;4.47;3.20;;;21.00;47.20;;;;;;4995928;28;20053;-83
2022/04/23 17:19:20;;;;;;;4.10;3.08;;;21.10;47.40;;;;;;5012475;28;20077;-81
2022/04/23 17:21:46;;;;;;;6.43;3.40;;;21.10;47.30;;;;;;5014216;28;20079;-80
2022/04/23 17:24:16;;;;;;;5.43;3.40;;;21.10;47.20;;;;;;5012442;28;20076;-82
2022/04/23 17:26:43;;;;;;;4.75;3.28;;;21.10;47.30;;;;;;5013269;28;20064;-81
2022/04/23 17:29:08;;;;;;;6.30;3.28;;;21.20;47.40;;;;;;5014393;28;20383;-82
2022/04/23 17:31:34;;;;;;;4.13;3.00;;;21.10;47.20;;;;;;5012547;28;20040;-83
2022/04/23 17:34:00;;;;;;;5.78;3.30;;;21.10;47.60;;;;;;5012120;28;20054;-82
2022/04/23 17:36:25;;;;;;;5.47;3.40;;;21.20;47.70;;;;;;5012329;28;20125;-81
2022/04/23 17:38:57;;;;;;;4.75;3.28;;;21.20;47.60;;;;;;4996031;28;20034;-81
2022/04/23 17:41:26;;;;;;;5.82;3.30;;;21.00;47.70;;;;;;5014101;28;20033;-77
2022/04/23 17:43:53;;;;;;;5.88;3.13;;;20.90;48.00;;;;;;5011982;28;20084;-78
2022/04/23 17:46:22;;;;;;;4.97;3.30;;;20.70;47.80;;;;;;5012349;28;20046;-78
2022/04/23 17:48:48;;;;;;;5.80;3.25;;;20.40;48.00;;;;;;5013700;28;20117;-76
2022/04/23 17:51:15;;;;;;;9.43;3.45;;;20.00;48.30;;;;;;5012029;28;20042;-77
2022/04/23 17:53:41;;;;;;;5.90;3.78;;;19.60;48.20;;;;;;5012322;28;20069;-81
2022/04/23 17:56:07;;;;;;;4.65;3.28;;;19.30;48.80;;;;;;5012697;28;20049;-82